createdAt,value
2022-12-08T00:00:08.452Z,96886.75
2022-12-08T00:02:44.283Z,96884.25
2022-12-08T00:05:29.277Z,96842.94
2022-12-08T00:08:14.210Z,96887.28
2022-12-08T00:10:51.057Z,96886.44
2022-12-08T00:13:17.628Z,96884.66
2022-12-08T00:15:44.206Z,96886.72
2022-12-08T00:18:10.731Z,96887.69
2022-12-08T00:20:37.317Z,96880.69
2022-12-08T00:23:04.354Z,96744.78
2022-12-08T00:25:34.830Z,96874.84
2022-12-08T00:28:02.691Z,96850.88
2022-12-08T00:30:29.238Z,96877.44
2022-12-08T00:32:55.884Z,96877.44
2022-12-08T00:35:22.405Z,96847.72
2022-12-08T00:37:48.972Z,96874.69
2022-12-08T00:40:15.490Z,96867.59
2022-12-08T00:42:42.032Z,96715.28
2022-12-08T00:45:08.918Z,96834.75
2022-12-08T00:47:35.502Z,96869.78
2022-12-08T00:50:02.513Z,96732.50
2022-12-08T00:52:29.318Z,96874.00
2022-12-08T00:54:55.995Z,96847.75
2022-12-08T00:57:22.701Z,96871.97
2022-12-08T00:59:49.228Z,96752.59
2022-12-08T01:02:15.850Z,96750.84
2022-12-08T01:04:42.487Z,96700.78
2022-12-08T01:07:09.234Z,96874.97
2022-12-08T01:09:36.014Z,96704.34
2022-12-08T01:12:02.586Z,96869.91
2022-12-08T01:14:29.116Z,96871.53
2022-12-08T01:16:55.785Z,96790.59
2022-12-08T01:19:22.408Z,96858.28
2022-12-08T01:21:48.983Z,96878.78
2022-12-08T01:24:18.544Z,96878.78
2022-12-08T01:26:46.011Z,96879.34
2022-12-08T01:29:12.991Z,96876.59
2022-12-08T01:31:40.281Z,96881.38
2022-12-08T01:34:08.183Z,96702.41
2022-12-08T01:36:38.686Z,96876.19
2022-12-08T01:39:08.742Z,96870.06
2022-12-08T01:41:37.632Z,96877.28
2022-12-08T01:44:04.449Z,96871.00
2022-12-08T01:46:33.119Z,96890.13
2022-12-08T01:49:15.871Z,96870.72
2022-12-08T01:51:48.491Z,96810.16
2022-12-08T01:54:15.770Z,96768.72
2022-12-08T01:56:52.911Z,96861.44
2022-12-08T01:59:19.804Z,96857.19
2022-12-08T02:01:51.181Z,96858.94
2022-12-08T02:04:18.072Z,96786.34
2022-12-08T02:06:47.444Z,96656.50
2022-12-08T02:09:14.716Z,96720.75
2022-12-08T02:11:41.292Z,96756.28
2022-12-08T02:14:10.831Z,96689.22
2022-12-08T02:16:43.358Z,96798.38
2022-12-08T02:19:37.839Z,96830.66
2022-12-08T02:22:07.365Z,96832.41
2022-12-08T02:25:04.724Z,96650.56
2022-12-08T02:27:44.215Z,96822.72
2022-12-08T02:30:17.201Z,96632.25
2022-12-08T02:33:20.736Z,96675.81
2022-12-08T02:35:58.622Z,96820.56
2022-12-08T02:39:19.544Z,96541.03
2022-12-08T02:41:56.897Z,96806.47
2022-12-08T02:44:29.484Z,96810.28
2022-12-08T02:47:02.696Z,96698.75
2022-12-08T02:49:33.337Z,96808.59
2022-12-08T02:52:11.942Z,96613.59
2022-12-08T02:54:46.465Z,96752.03
2022-12-08T02:57:25.108Z,96809.69
2022-12-08T03:00:07.512Z,96807.78
2022-12-08T03:02:43.198Z,96802.19
2022-12-08T03:05:31.456Z,96774.56
2022-12-08T03:08:21.147Z,96763.09
2022-12-08T03:10:56.115Z,96798.25
2022-12-08T03:13:33.314Z,96796.88
2022-12-08T03:16:02.754Z,96664.38
2022-12-08T03:18:33.709Z,96638.41
2022-12-08T03:21:01.073Z,96798.53
2022-12-08T03:23:30.236Z,96622.72
2022-12-08T03:26:04.447Z,96791.25
2022-12-08T03:28:31.640Z,96788.13
2022-12-08T03:31:02.486Z,96790.03
2022-12-08T03:33:33.709Z,96789.50
2022-12-08T03:36:04.131Z,96789.50
2022-12-08T03:38:41.578Z,96790.31
2022-12-08T03:41:20.568Z,96692.47
2022-12-08T03:43:47.757Z,96782.81
2022-12-08T03:46:15.828Z,96779.00
2022-12-08T03:48:42.932Z,96785.13
2022-12-08T03:51:09.896Z,96786.50
2022-12-08T03:53:36.653Z,96650.66
2022-12-08T03:56:06.025Z,96787.06
2022-12-08T03:58:37.260Z,96649.72
2022-12-08T04:01:04.152Z,96784.47
2022-12-08T04:03:30.747Z,96725.28
2022-12-08T04:05:57.429Z,96775.44
2022-12-08T04:08:24.226Z,96788.97
2022-12-08T04:10:50.934Z,96639.22
2022-12-08T04:13:17.488Z,96680.19
2022-12-08T04:15:48.568Z,96803.31
2022-12-08T04:18:16.104Z,96777.34
2022-12-08T04:20:44.436Z,96774.06
2022-12-08T04:23:12.259Z,96768.19
2022-12-08T04:25:39.560Z,96772.41
2022-12-08T04:28:06.595Z,96768.34
2022-12-08T04:30:33.817Z,96769.28
2022-12-08T04:33:00.716Z,96617.75
2022-12-08T04:35:30.186Z,96632.09
2022-12-08T04:37:56.995Z,96756.69
2022-12-08T04:40:23.975Z,96756.41
2022-12-08T04:42:50.572Z,96753.41
2022-12-08T04:45:17.357Z,96717.59
2022-12-08T04:47:43.931Z,96754.75
2022-12-08T04:50:11.013Z,96756.78
2022-12-08T04:52:37.648Z,96710.88
2022-12-08T04:55:04.528Z,96730.16
2022-12-08T04:57:31.101Z,96683.66
2022-12-08T04:59:57.664Z,96747.06
2022-12-08T05:02:24.378Z,96744.59
2022-12-08T05:07:17.653Z,96578.03
2022-12-08T05:09:44.891Z,96749.78
2022-12-08T05:12:11.518Z,96562.44
2022-12-08T05:14:38.162Z,96638.53
2022-12-08T05:17:09.349Z,96751.25
2022-12-08T05:19:36.408Z,96748.94
2022-12-08T05:22:02.961Z,96732.81
2022-12-08T05:24:29.593Z,96737.19
2022-12-08T05:26:56.185Z,96741.66
2022-12-08T05:29:22.804Z,96581.09
2022-12-08T05:31:49.540Z,96733.88
2022-12-08T05:34:16.253Z,96654.44
2022-12-08T05:36:42.936Z,96580.47
2022-12-08T05:39:13.239Z,96735.47
2022-12-08T05:41:39.927Z,96714.41
2022-12-08T05:44:07.485Z,96731.34
2022-12-08T05:46:34.506Z,96738.56
2022-12-08T05:49:02.406Z,96738.72
2022-12-08T05:51:29.645Z,96745.56
2022-12-08T05:53:56.702Z,96742.25
2022-12-08T05:56:23.609Z,96740.59
2022-12-08T05:58:50.467Z,96716.56
2022-12-08T06:01:24.610Z,96738.84
2022-12-08T06:03:52.084Z,96667.56
2022-12-08T06:06:19.111Z,96554.59
2022-12-08T06:08:45.748Z,96740.22
2022-12-08T06:11:39.147Z,96730.81
2022-12-08T06:14:10.346Z,96447.91
2022-12-08T06:16:36.972Z,96567.50
2022-12-08T06:19:03.604Z,96688.97
2022-12-08T06:21:30.259Z,96689.94
2022-12-08T06:23:56.920Z,96612.59
2022-12-08T06:26:23.561Z,96723.72
2022-12-08T06:28:50.397Z,96716.78
2022-12-08T06:31:22.765Z,96725.94
2022-12-08T06:33:49.764Z,96587.03
2022-12-08T06:36:19.964Z,96735.47
2022-12-08T06:38:48.103Z,96736.41
2022-12-08T06:41:15.082Z,96617.91
2022-12-08T06:43:42.487Z,96525.84
2022-12-08T06:46:13.369Z,96654.91
2022-12-08T06:48:40.074Z,96699.19
2022-12-08T06:51:18.777Z,96685.03
2022-12-08T06:53:46.596Z,96711.59
2022-12-08T06:56:14.356Z,96738.78
2022-12-08T06:58:40.990Z,96710.91
2022-12-08T07:01:10.034Z,96742.91
2022-12-08T07:03:37.778Z,96636.84
2022-12-08T07:06:05.171Z,96747.00
2022-12-08T07:08:32.888Z,96748.09
2022-12-08T07:10:59.518Z,96438.94
2022-12-08T07:13:26.092Z,96620.59
2022-12-08T07:15:52.667Z,96749.72
2022-12-08T07:18:19.284Z,96569.19
2022-12-08T07:20:45.950Z,96748.19
2022-12-08T07:23:12.676Z,96725.94
2022-12-08T07:25:39.219Z,96558.13
2022-12-08T07:28:10.908Z,96743.69
2022-12-08T07:30:38.559Z,96750.41
2022-12-08T07:33:08.161Z,96710.19
2022-12-08T07:35:35.361Z,96750.00
2022-12-08T07:38:02.560Z,96514.34
2022-12-08T07:40:30.060Z,96751.78
2022-12-08T07:42:56.689Z,96746.47
2022-12-08T07:45:28.292Z,96654.44
2022-12-08T07:47:57.811Z,96736.66
2022-12-08T07:50:24.599Z,96556.03
2022-12-08T07:52:51.171Z,96731.75
2022-12-08T07:55:17.706Z,96545.56
2022-12-08T07:57:44.390Z,96588.41
2022-12-08T08:00:11.522Z,96514.91
2022-12-08T08:02:41.633Z,96730.81
2022-12-08T08:05:09.023Z,96680.94
2022-12-08T08:07:37.215Z,96730.53
2022-12-08T08:10:06.809Z,96735.19
2022-12-08T08:12:33.756Z,96738.63
2022-12-08T08:15:02.885Z,96738.22
2022-12-08T08:17:29.832Z,96703.75
2022-12-08T08:19:56.863Z,96650.75
2022-12-08T08:22:24.911Z,96701.53
2022-12-08T08:24:51.651Z,96736.72
2022-12-08T08:27:18.304Z,96742.06
2022-12-08T08:29:47.171Z,96740.00
2022-12-08T08:32:14.549Z,96743.41
2022-12-08T08:34:41.112Z,96743.28
2022-12-08T08:37:07.738Z,96742.34
2022-12-08T08:39:35.784Z,96744.78
2022-12-08T08:42:02.346Z,96697.09
2022-12-08T08:44:28.980Z,96737.69
2022-12-08T08:46:55.656Z,96661.16
2022-12-08T08:49:22.320Z,96550.00
2022-12-08T08:51:49.120Z,96741.41
2022-12-08T08:54:15.759Z,96743.44
2022-12-08T08:56:42.370Z,96741.41
2022-12-08T08:59:09.663Z,96614.06
2022-12-08T09:01:36.386Z,96554.69
2022-12-08T09:04:03.284Z,96612.97
2022-12-08T09:06:30.131Z,96672.13
2022-12-08T09:08:56.726Z,96631.31
2022-12-08T09:11:23.759Z,96744.69
2022-12-08T09:13:51.760Z,96748.66
2022-12-08T09:16:22.100Z,96665.44
2022-12-08T09:18:49.514Z,96605.75
2022-12-08T09:21:22.720Z,96742.91
2022-12-08T09:23:56.491Z,96781.31
2022-12-08T09:26:24.029Z,96749.03
2022-12-08T09:28:52.536Z,96743.59
2022-12-08T09:31:21.096Z,96741.81
2022-12-08T09:33:48.876Z,96739.63
2022-12-08T09:36:15.467Z,96571.13
2022-12-08T09:38:42.169Z,96731.97
2022-12-08T09:41:37.561Z,96733.06
2022-12-08T09:44:28.939Z,96731.00
2022-12-08T09:46:56.568Z,96730.59
2022-12-08T09:49:39.430Z,96723.72
2022-12-08T09:52:19.665Z,96601.69
2022-12-08T09:54:46.302Z,96724.28
2022-12-08T09:57:19.234Z,96710.16
2022-12-08T09:59:57.640Z,96555.97
2022-12-08T10:02:28.118Z,96708.09
2022-12-08T10:04:56.543Z,96701.94
2022-12-08T10:07:30.748Z,96706.72
2022-12-08T10:10:06.509Z,96724.19
2022-12-08T10:12:50.374Z,96699.25
2022-12-08T10:15:38.739Z,96696.91
2022-12-08T10:18:15.052Z,96605.31
2022-12-08T10:20:44.215Z,96687.13
2022-12-08T10:23:24.467Z,96691.09
2022-12-08T10:25:58.946Z,96491.41
2022-12-08T10:28:25.595Z,96472.44
2022-12-08T10:30:52.251Z,96499.78
2022-12-08T10:33:21.758Z,96679.03
2022-12-08T10:35:54.046Z,96671.78
2022-12-08T10:38:20.658Z,96664.34
2022-12-08T10:40:49.691Z,96664.56
2022-12-08T10:43:25.823Z,96502.56
2022-12-08T10:45:52.704Z,96359.38
2022-12-08T10:48:22.546Z,96455.28
2022-12-08T10:50:52.382Z,96654.81
2022-12-08T10:53:32.115Z,96649.09
2022-12-08T10:56:01.665Z,96646.72
2022-12-08T10:58:35.728Z,96653.25
2022-12-08T11:01:09.575Z,96238.75
2022-12-08T11:03:44.884Z,96434.09
2022-12-08T11:06:22.498Z,96482.53
2022-12-08T11:08:53.893Z,96637.44
2022-12-08T11:11:24.455Z,96619.66
2022-12-08T11:13:55.841Z,96619.88
2022-12-08T11:16:23.351Z,96618.78
2022-12-08T11:18:56.988Z,96618.63
2022-12-08T11:21:35.431Z,96452.72
2022-12-08T11:24:16.703Z,96520.78
2022-12-08T11:26:50.092Z,96483.13
2022-12-08T11:29:17.386Z,96608.41
2022-12-08T11:31:50.076Z,96606.63
2022-12-08T11:34:30.712Z,96600.78
2022-12-08T11:36:58.561Z,96595.91
2022-12-08T11:39:29.760Z,96396.13
2022-12-08T11:41:57.857Z,96504.06
2022-12-08T11:44:46.309Z,96543.16
2022-12-08T11:47:42.347Z,96580.97
2022-12-08T11:50:19.630Z,96538.63
2022-12-08T11:52:49.706Z,96467.97
2022-12-08T11:55:36.949Z,96554.66
2022-12-08T11:58:15.727Z,96571.69
2022-12-08T12:00:42.380Z,96570.75
2022-12-08T12:03:45.608Z,96554.41
2022-12-08T12:06:57.372Z,96561.91
2022-12-08T12:09:36.351Z,96565.97
2022-12-08T12:12:27.525Z,96425.50
2022-12-08T12:15:30.700Z,96574.31
2022-12-08T12:17:57.258Z,96566.13
2022-12-08T12:20:35.991Z,96572.69
2022-12-08T12:23:19.720Z,96551.13
2022-12-08T12:25:55.222Z,96569.06
2022-12-08T12:28:25.348Z,96409.69
2022-12-08T12:31:00.840Z,96565.81
2022-12-08T12:33:29.955Z,96558.97
2022-12-08T12:35:58.630Z,96405.28
2022-12-08T12:39:03.993Z,96563.84
2022-12-08T12:41:50.638Z,96565.50
2022-12-08T12:44:32.736Z,96548.69
2022-12-08T12:47:04.592Z,96549.16
2022-12-08T12:49:40.462Z,96547.03
2022-12-08T12:52:09.715Z,96551.78
2022-12-08T12:54:36.296Z,96552.44
2022-12-08T12:57:05.457Z,96545.91
2022-12-08T12:59:55.488Z,96544.63
2022-12-08T13:02:34.018Z,96549.19
2022-12-08T13:05:30.508Z,96549.47
2022-12-08T13:08:07.729Z,96546.22
2022-12-08T13:10:39.467Z,96380.59
2022-12-08T13:13:18.005Z,96535.75
2022-12-08T13:15:52.465Z,96544.22
2022-12-08T13:18:20.985Z,96540.84
2022-12-08T13:20:52.920Z,96534.13
2022-12-08T13:23:43.459Z,96534.78
2022-12-08T13:26:19.325Z,96541.78
2022-12-08T13:29:01.343Z,96533.34
2022-12-08T13:31:46.783Z,96522.41
2022-12-08T13:34:22.740Z,96529.69
2022-12-08T13:37:00.166Z,96441.59
2022-12-08T13:40:01.625Z,96529.69
2022-12-08T13:42:51.167Z,96523.34
2022-12-08T13:45:43.590Z,96520.91
2022-12-08T13:49:36.577Z,96454.78
2022-12-08T13:57:25.987Z,96537.84
2022-12-08T13:59:52.699Z,96530.16
2022-12-08T14:02:47.136Z,96540.47
2022-12-08T14:05:19.043Z,96540.63
2022-12-08T14:07:49.898Z,96419.44
2022-12-08T14:10:26.978Z,96541.09
2022-12-08T14:13:03.736Z,96372.44
2022-12-08T14:15:37.837Z,96526.56
2022-12-08T14:18:07.093Z,96532.53
2022-12-08T14:20:57.897Z,96502.16
2022-12-08T14:23:22.665Z,96523.91
2022-12-08T14:25:49.311Z,96528.34
2022-12-08T14:28:16.662Z,96515.91
2022-12-08T14:30:43.374Z,96475.06
2022-12-08T14:33:16.742Z,96505.09
2022-12-08T14:35:49.163Z,96528.66
2022-12-08T14:38:17.814Z,96470.38
2022-12-08T14:40:49.799Z,96405.22
2022-12-08T14:43:20.716Z,96502.84
2022-12-08T14:45:49.136Z,96519.09
2022-12-08T14:48:30.920Z,96523.31
2022-12-08T14:51:03.485Z,96526.22
2022-12-08T14:53:53.502Z,96441.50
2022-12-08T14:56:32.678Z,96517.31
2022-12-08T14:59:32.374Z,96516.28
2022-12-08T15:02:24.130Z,96523.59
2022-12-08T15:04:56.845Z,96474.69
2022-12-08T15:07:26.658Z,96527.91
2022-12-08T15:10:14.774Z,96524.78
2022-12-08T15:13:00.268Z,96520.72
2022-12-08T15:15:27.623Z,96528.69
2022-12-08T15:18:17.104Z,96531.72
2022-12-08T15:20:43.986Z,96524.22
2022-12-08T15:23:30.614Z,96527.78
2022-12-08T15:25:59.070Z,96285.69
2022-12-08T15:28:30.379Z,96533.88
2022-12-08T15:30:57.765Z,96534.75
2022-12-08T15:33:24.641Z,96492.56
2022-12-08T15:35:51.647Z,96530.22
2022-12-08T15:38:28.887Z,96379.25
2022-12-08T15:40:58.669Z,96524.66
2022-12-08T15:43:25.400Z,96487.78
2022-12-08T15:45:59.527Z,96270.25
2022-12-08T15:48:29.368Z,96348.28
2022-12-08T15:50:56.607Z,96475.53
2022-12-08T15:53:26.063Z,96534.47
2022-12-08T15:56:25.934Z,96529.19
2022-12-08T15:58:56.606Z,96528.38
2022-12-08T16:01:24.434Z,96528.56
2022-12-08T16:09:26.128Z,96537.91
2022-12-08T16:12:11.442Z,96533.44
2022-12-08T16:17:27.065Z,96428.47
2022-12-08T16:19:54.290Z,96531.81
2022-12-08T16:25:21.826Z,96534.16
2022-12-08T16:28:44.798Z,96535.22
2022-12-08T16:30:39.739Z,96283.44
2022-12-08T16:33:06.307Z,96504.53
2022-12-08T16:35:33.166Z,96526.91
2022-12-08T16:37:59.790Z,96535.91
2022-12-08T16:40:26.448Z,96537.66
2022-12-08T16:42:53.363Z,96542.69
2022-12-08T16:45:24.313Z,96544.19
2022-12-08T16:47:57.038Z,96342.38
2022-12-08T16:50:29.256Z,96487.88
2022-12-08T16:53:05.565Z,96547.41
2022-12-08T16:55:33.022Z,96361.22
2022-12-08T16:57:59.767Z,96379.13
2022-12-08T17:00:28.507Z,96535.78
2022-12-08T17:02:55.746Z,96569.94
2022-12-08T17:05:25.072Z,96549.63
2022-12-08T17:07:53.334Z,96554.38
2022-12-08T17:10:25.066Z,96551.59
2022-12-08T17:12:52.600Z,96373.88
2022-12-08T17:15:22.157Z,96557.69
2022-12-08T17:17:49.549Z,96376.88
2022-12-08T17:20:19.224Z,96556.56
2022-12-08T17:22:46.932Z,96552.31
2022-12-08T17:25:13.986Z,96372.13
2022-12-08T17:27:41.388Z,96553.75
2022-12-08T17:30:11.070Z,96533.44
2022-12-08T17:32:38.207Z,96552.63
2022-12-08T17:35:05.974Z,96574.53
2022-12-08T17:37:32.768Z,96558.47
2022-12-08T17:39:59.376Z,96362.72
2022-12-08T17:42:27.166Z,96510.09
2022-12-08T17:44:54.236Z,96530.03
2022-12-08T17:47:20.824Z,96553.91
2022-12-08T17:49:47.419Z,96497.41
2022-12-08T17:52:14.035Z,96544.78
2022-12-08T17:54:40.713Z,96416.41
2022-12-08T17:57:07.362Z,96372.59
2022-12-08T17:59:33.965Z,96398.09
2022-12-08T18:02:04.422Z,96343.81
2022-12-08T18:04:31.177Z,96553.53
2022-12-08T18:07:01.296Z,96519.81
2022-12-08T18:09:31.166Z,96558.19
2022-12-08T18:11:58.057Z,96417.69
2022-12-08T18:14:24.896Z,96418.72
2022-12-08T18:16:51.669Z,96422.31
2022-12-08T18:19:18.617Z,96527.91
2022-12-08T18:21:45.213Z,96557.31
2022-12-08T18:24:22.010Z,96555.16
2022-12-08T18:26:50.597Z,96503.59
2022-12-08T18:29:17.418Z,96289.81
2022-12-08T18:31:43.997Z,96452.97
2022-12-08T18:34:10.576Z,96549.38
2022-12-08T18:36:37.161Z,96418.28
2022-12-08T18:39:08.907Z,96519.22
2022-12-08T18:41:40.379Z,96537.91
2022-12-08T18:44:08.814Z,96544.06
2022-12-08T18:46:35.727Z,96538.75
2022-12-08T18:49:02.348Z,96539.31
2022-12-08T18:51:28.955Z,96384.78
2022-12-08T18:53:55.503Z,96454.94
2022-12-08T18:56:31.428Z,96546.81
2022-12-08T18:59:03.624Z,96545.19
2022-12-08T19:01:35.481Z,96541.06
2022-12-08T19:04:27.288Z,96539.31
2022-12-08T19:06:52.748Z,96424.03
2022-12-08T19:09:20.007Z,96536.16
2022-12-08T19:11:46.815Z,96238.31
2022-12-08T19:14:13.357Z,96532.44
2022-12-08T19:16:39.979Z,96323.06
2022-12-08T19:19:06.585Z,96542.22
2022-12-08T19:21:33.431Z,96445.13
2022-12-08T19:24:00.359Z,96542.84
2022-12-08T19:26:28.354Z,96424.03
2022-12-08T19:28:55.017Z,96548.03
2022-12-08T19:31:21.764Z,96547.78
2022-12-08T19:33:48.363Z,96525.41
2022-12-08T19:36:18.292Z,96385.06
2022-12-08T19:39:04.002Z,96547.53
2022-12-08T19:41:49.172Z,96409.19
2022-12-08T19:44:42.753Z,96490.50
2022-12-08T19:47:09.655Z,96534.34
2022-12-08T19:49:36.593Z,96344.72
2022-12-08T19:52:03.956Z,96445.88
2022-12-08T19:54:30.560Z,96495.84
2022-12-08T19:56:57.340Z,96561.72
2022-12-08T19:59:26.448Z,96536.66
2022-12-08T20:01:55.759Z,96328.81
2022-12-08T20:04:23.766Z,96312.88
2022-12-08T20:06:52.381Z,96555.47
2022-12-08T20:09:19.790Z,96534.34
2022-12-08T20:11:46.726Z,96536.66
2022-12-08T20:14:13.324Z,96329.06
2022-12-08T20:16:41.740Z,96476.50
2022-12-08T20:19:09.086Z,96540.34
2022-12-08T20:21:35.629Z,96548.78
2022-12-08T20:24:02.245Z,96537.50
2022-12-08T20:26:28.832Z,96534.63
2022-12-08T20:28:55.439Z,96366.88
2022-12-08T20:31:27.296Z,96485.22
2022-12-08T20:33:55.376Z,96531.81
2022-12-08T20:36:22.810Z,96531.41
2022-12-08T20:38:51.481Z,96523.41
2022-12-08T20:41:19.224Z,96527.88
2022-12-08T20:43:47.154Z,96536.31
2022-12-08T20:46:16.220Z,96530.75
2022-12-08T20:48:43.956Z,96410.06
2022-12-08T20:51:18.897Z,96454.38
2022-12-08T20:53:46.109Z,96337.97
2022-12-08T20:56:21.268Z,96536.91
2022-12-08T20:58:49.191Z,96531.88
2022-12-08T21:01:18.724Z,96536.13
2022-12-08T21:03:46.156Z,96534.91
2022-12-08T21:06:13.411Z,96444.13
2022-12-08T21:08:41.409Z,96533.97
2022-12-08T21:11:09.460Z,96361.06
2022-12-08T21:13:39.523Z,96527.69
2022-12-08T21:16:09.143Z,96385.06
2022-12-08T21:18:39.624Z,96523.22
2022-12-08T21:21:10.705Z,96524.16
2022-12-08T21:23:37.796Z,96522.38
2022-12-08T21:26:14.366Z,96541.47
2022-12-08T21:28:41.935Z,96506.28
2022-12-08T21:31:10.261Z,96306.38
2022-12-08T21:33:37.241Z,96292.91
2022-12-08T21:36:20.398Z,96472.53
2022-12-08T21:38:47.631Z,96536.00
2022-12-08T21:41:37.270Z,96493.53
2022-12-08T21:44:05.071Z,96336.97
2022-12-08T21:46:32.082Z,96306.75
2022-12-08T21:48:58.897Z,96448.69
2022-12-08T21:51:25.775Z,96451.16
2022-12-08T21:53:52.610Z,96448.00
2022-12-08T21:56:20.789Z,96330.56
2022-12-08T21:58:47.424Z,96532.78
2022-12-08T22:01:16.620Z,96471.63
2022-12-08T22:03:43.650Z,96391.94
2022-12-08T22:06:12.817Z,96540.00
2022-12-08T22:08:39.913Z,96482.53
2022-12-08T22:11:08.098Z,96453.16
2022-12-08T22:13:36.620Z,96534.41
2022-12-08T22:16:06.681Z,96362.25
2022-12-08T22:18:34.670Z,96539.59
2022-12-08T22:21:02.540Z,96533.47
2022-12-08T22:23:29.269Z,96368.78
2022-12-08T22:26:00.077Z,96543.69
2022-12-08T22:28:29.954Z,96529.09
2022-12-08T22:30:56.653Z,96529.78
2022-12-08T22:33:23.334Z,96222.56
2022-12-08T22:36:06.293Z,96513.00
2022-12-08T22:38:36.542Z,96517.25
2022-12-08T22:41:04.895Z,96507.72
2022-12-08T22:43:33.747Z,96339.38
2022-12-08T22:46:00.692Z,96516.16
2022-12-08T22:48:28.064Z,96395.41
2022-12-08T22:50:59.683Z,96350.03
2022-12-08T22:53:26.872Z,96511.41
2022-12-08T22:55:53.805Z,96460.53
2022-12-08T22:58:20.508Z,96522.44
2022-12-08T23:00:47.155Z,96482.50
2022-12-08T23:03:13.802Z,96501.72
2022-12-08T23:05:40.997Z,96410.72
2022-12-08T23:08:08.517Z,96462.56
2022-12-08T23:10:35.813Z,96323.19
2022-12-08T23:13:05.284Z,96497.25
2022-12-08T23:15:32.100Z,96434.88
2022-12-08T23:17:58.820Z,96404.88
2022-12-08T23:20:25.775Z,96497.25
2022-12-08T23:22:52.554Z,96331.44
2022-12-08T23:25:22.117Z,96305.91
2022-12-08T23:27:48.693Z,96488.78
2022-12-08T23:30:15.845Z,96218.41
2022-12-08T23:32:42.803Z,96488.78
2022-12-08T23:35:09.679Z,96486.19
2022-12-08T23:37:36.571Z,96491.38
2022-12-08T23:40:05.367Z,96316.81
2022-12-08T23:42:33.934Z,96319.97
2022-12-08T23:45:00.798Z,96480.75
2022-12-08T23:47:28.988Z,96374.06
2022-12-08T23:49:55.681Z,96490.25
2022-12-08T23:52:22.260Z,96480.06
2022-12-08T23:54:54.599Z,96483.19
2022-12-08T23:57:21.789Z,96377.84
2022-12-08T23:59:48.374Z,96463.66
